sensor_id;sensor_type;location;lat;lon;timestamp;temperature;humidity
41437;DHT22;27178;49.460;10.850;2023-01-30T00:01:15;2.00;74.50
41437;DHT22;27178;49.460;10.850;2023-01-30T00:03:45;2.00;74.70
41437;DHT22;27178;49.460;10.850;2023-01-30T00:06:14;2.00;74.70
41437;DHT22;27178;49.460;10.850;2023-01-30T00:08:42;2.00;74.80
41437;DHT22;27178;49.460;10.850;2023-01-30T00:11:12;2.00;74.70
41437;DHT22;27178;49.460;10.850;2023-01-30T00:13:41;2.00;75.00
41437;DHT22;27178;49.460;10.850;2023-01-30T00:16:09;2.00;75.10
41437;DHT22;27178;49.460;10.850;2023-01-30T00:18:39;2.00;75.10
41437;DHT22;27178;49.460;10.850;2023-01-30T00:21:10;2.10;75.20
41437;DHT22;27178;49.460;10.850;2023-01-30T00:23:39;2.10;75.20
41437;DHT22;27178;49.460;10.850;2023-01-30T00:26:07;2.10;75.20
41437;DHT22;27178;49.460;10.850;2023-01-30T00:28:36;2.10;75.20
41437;DHT22;27178;49.460;10.850;2023-01-30T00:31:06;2.20;75.20
41437;DHT22;27178;49.460;10.850;2023-01-30T00:33:36;2.20;75.30
41437;DHT22;27178;49.460;10.850;2023-01-30T00:36:05;2.20;75.20
41437;DHT22;27178;49.460;10.850;2023-01-30T00:38:36;2.30;75.40
41437;DHT22;27178;49.460;10.850;2023-01-30T00:41:04;2.30;75.20
41437;DHT22;27178;49.460;10.850;2023-01-30T00:43:33;2.30;75.40
41437;DHT22;27178;49.460;10.850;2023-01-30T00:46:23;2.30;75.40
41437;DHT22;27178;49.460;10.850;2023-01-30T00:49:11;2.40;75.50
41437;DHT22;27178;49.460;10.850;2023-01-30T00:51:40;2.40;75.30
41437;DHT22;27178;49.460;10.850;2023-01-30T00:54:09;2.40;75.40
41437;DHT22;27178;49.460;10.850;2023-01-30T00:56:38;2.40;75.50
41437;DHT22;27178;49.460;10.850;2023-01-30T00:59:06;2.40;75.50
41437;DHT22;27178;49.460;10.850;2023-01-30T01:01:34;2.40;75.60
41437;DHT22;27178;49.460;10.850;2023-01-30T01:04:04;2.50;75.60
41437;DHT22;27178;49.460;10.850;2023-01-30T01:06:32;2.50;75.70
41437;DHT22;27178;49.460;10.850;2023-01-30T01:09:01;2.50;75.60
41437;DHT22;27178;49.460;10.850;2023-01-30T01:11:31;2.60;75.70
41437;DHT22;27178;49.460;10.850;2023-01-30T01:14:01;2.60;75.70
41437;DHT22;27178;49.460;10.850;2023-01-30T01:16:31;2.70;75.80
41437;DHT22;27178;49.460;10.850;2023-01-30T01:18:59;2.70;75.80
41437;DHT22;27178;49.460;10.850;2023-01-30T01:21:28;2.70;75.90
41437;DHT22;27178;49.460;10.850;2023-01-30T01:23:58;2.80;75.90
41437;DHT22;27178;49.460;10.850;2023-01-30T01:26:27;2.80;75.90
41437;DHT22;27178;49.460;10.850;2023-01-30T01:28:57;2.80;75.80
41437;DHT22;27178;49.460;10.850;2023-01-30T01:31:26;2.80;75.80
41437;DHT22;27178;49.460;10.850;2023-01-30T01:33:55;2.90;75.70
41437;DHT22;27178;49.460;10.850;2023-01-30T01:36:23;2.90;75.70
41437;DHT22;27178;49.460;10.850;2023-01-30T01:39:12;3.00;75.70
41437;DHT22;27178;49.460;10.850;2023-01-30T01:41:41;3.00;75.50
41437;DHT22;27178;49.460;10.850;2023-01-30T01:44:10;3.00;75.30
41437;DHT22;27178;49.460;10.850;2023-01-30T01:46:43;3.10;75.50
41437;DHT22;27178;49.460;10.850;2023-01-30T01:49:19;3.10;75.50
41437;DHT22;27178;49.460;10.850;2023-01-30T01:51:52;3.10;75.40
41437;DHT22;27178;49.460;10.850;2023-01-30T01:54:26;3.10;75.40
41437;DHT22;27178;49.460;10.850;2023-01-30T01:56:59;3.20;75.50
41437;DHT22;27178;49.460;10.850;2023-01-30T01:59:32;3.20;75.50
41437;DHT22;27178;49.460;10.850;2023-01-30T02:02:06;3.20;75.40
41437;DHT22;27178;49.460;10.850;2023-01-30T02:04:39;3.20;75.40
41437;DHT22;27178;49.460;10.850;2023-01-30T02:07:27;3.30;75.50
41437;DHT22;27178;49.460;10.850;2023-01-30T02:09:56;3.30;75.40
41437;DHT22;27178;49.460;10.850;2023-01-30T02:12:25;3.30;75.40
41437;DHT22;27178;49.460;10.850;2023-01-30T02:14:55;3.30;75.40
41437;DHT22;27178;49.460;10.850;2023-01-30T02:17:25;3.30;75.30
41437;DHT22;27178;49.460;10.850;2023-01-30T02:19:59;3.30;75.30
41437;DHT22;27178;49.460;10.850;2023-01-30T02:22:46;3.40;75.40
41437;DHT22;27178;49.460;10.850;2023-01-30T02:31:25;3.40;75.40
41437;DHT22;27178;49.460;10.850;2023-01-30T02:34:04;3.40;75.30
41437;DHT22;27178;49.460;10.850;2023-01-30T02:36:42;3.40;76.10
41437;DHT22;27178;49.460;10.850;2023-01-30T02:39:23;3.50;75.30
41437;DHT22;27178;49.460;10.850;2023-01-30T02:41:59;3.50;75.30
41437;DHT22;27178;49.460;10.850;2023-01-30T02:44:35;3.50;75.30
41437;DHT22;27178;49.460;10.850;2023-01-30T02:47:11;3.50;75.30
41437;DHT22;27178;49.460;10.850;2023-01-30T02:49:43;3.50;75.40
41437;DHT22;27178;49.460;10.850;2023-01-30T02:52:14;3.50;75.40
41437;DHT22;27178;49.460;10.850;2023-01-30T02:54:44;3.50;75.40
41437;DHT22;27178;49.460;10.850;2023-01-30T02:57:18;3.50;75.30
41437;DHT22;27178;49.460;10.850;2023-01-30T02:59:49;3.60;75.60
41437;DHT22;27178;49.460;10.850;2023-01-30T03:02:30;3.60;75.50
41437;DHT22;27178;49.460;10.850;2023-01-30T03:05:17;3.60;75.60
41437;DHT22;27178;49.460;10.850;2023-01-30T03:07:53;3.60;75.50
41437;DHT22;27178;49.460;10.850;2023-01-30T03:10:28;3.60;75.50
41437;DHT22;27178;49.460;10.850;2023-01-30T03:13:04;3.60;75.50
41437;DHT22;27178;49.460;10.850;2023-01-30T03:15:39;3.10;75.10
41437;DHT22;27178;49.460;10.850;2023-01-30T03:18:10;3.70;75.50
41437;DHT22;27178;49.460;10.850;2023-01-30T03:20:40;3.70;75.40
41437;DHT22;27178;49.460;10.850;2023-01-30T03:23:08;3.70;75.40
41437;DHT22;27178;49.460;10.850;2023-01-30T03:25:39;3.70;75.40
41437;DHT22;27178;49.460;10.850;2023-01-30T03:28:10;3.70;75.50
41437;DHT22;27178;49.460;10.850;2023-01-30T03:30:40;3.70;75.40
41437;DHT22;27178;49.460;10.850;2023-01-30T03:33:10;3.70;75.30
41437;DHT22;27178;49.460;10.850;2023-01-30T03:35:38;3.70;75.40
41437;DHT22;27178;49.460;10.850;2023-01-30T03:38:07;3.70;75.40
41437;DHT22;27178;49.460;10.850;2023-01-30T03:40:35;3.70;75.30
41437;DHT22;27178;49.460;10.850;2023-01-30T03:43:04;3.70;75.50
41437;DHT22;27178;49.460;10.850;2023-01-30T03:45:32;3.70;75.60
41437;DHT22;27178;49.460;10.850;2023-01-30T03:48:01;3.70;75.70
41437;DHT22;27178;49.460;10.850;2023-01-30T03:50:31;3.70;75.70
41437;DHT22;27178;49.460;10.850;2023-01-30T03:52:59;3.70;75.70
41437;DHT22;27178;49.460;10.850;2023-01-30T03:55:27;3.70;75.70
41437;DHT22;27178;49.460;10.850;2023-01-30T03:57:56;3.70;75.70
41437;DHT22;27178;49.460;10.850;2023-01-30T04:00:25;3.80;75.90
41437;DHT22;27178;49.460;10.850;2023-01-30T04:02:53;3.80;75.80
41437;DHT22;27178;49.460;10.850;2023-01-30T04:05:23;3.80;75.80
41437;DHT22;27178;49.460;10.850;2023-01-30T04:07:55;3.80;75.80
41437;DHT22;27178;49.460;10.850;2023-01-30T04:10:24;3.80;75.90
41437;DHT22;27178;49.460;10.850;2023-01-30T04:12:53;3.80;75.90
41437;DHT22;27178;49.460;10.850;2023-01-30T04:15:21;3.80;75.80
41437;DHT22;27178;49.460;10.850;2023-01-30T04:17:49;3.90;75.70
41437;DHT22;27178;49.460;10.850;2023-01-30T04:20:17;3.90;75.70
41437;DHT22;27178;49.460;10.850;2023-01-30T04:22:47;3.90;75.70
41437;DHT22;27178;49.460;10.850;2023-01-30T04:25:16;3.90;75.70
41437;DHT22;27178;49.460;10.850;2023-01-30T04:27:45;3.90;75.70
41437;DHT22;27178;49.460;10.850;2023-01-30T04:30:14;3.90;75.70
41437;DHT22;27178;49.460;10.850;2023-01-30T04:32:42;3.90;75.60
41437;DHT22;27178;49.460;10.850;2023-01-30T04:35:11;3.90;75.50
41437;DHT22;27178;49.460;10.850;2023-01-30T04:37:39;3.90;75.60
41437;DHT22;27178;49.460;10.850;2023-01-30T04:40:09;3.90;75.50
41437;DHT22;27178;49.460;10.850;2023-01-30T04:42:39;3.90;75.70
41437;DHT22;27178;49.460;10.850;2023-01-30T04:45:08;4.00;75.70
41437;DHT22;27178;49.460;10.850;2023-01-30T04:47:37;4.00;75.70
41437;DHT22;27178;49.460;10.850;2023-01-30T04:50:06;4.00;75.70
41437;DHT22;27178;49.460;10.850;2023-01-30T04:52:34;4.00;75.70
41437;DHT22;27178;49.460;10.850;2023-01-30T04:55:06;4.00;75.70
41437;DHT22;27178;49.460;10.850;2023-01-30T04:57:34;4.00;75.90
41437;DHT22;27178;49.460;10.850;2023-01-30T05:00:06;4.00;75.80
41437;DHT22;27178;49.460;10.850;2023-01-30T05:02:35;4.00;75.90
41437;DHT22;27178;49.460;10.850;2023-01-30T05:05:04;4.00;75.80
41437;DHT22;27178;49.460;10.850;2023-01-30T05:07:32;4.00;75.90
41437;DHT22;27178;49.460;10.850;2023-01-30T05:10:01;4.00;75.80
41437;DHT22;27178;49.460;10.850;2023-01-30T05:12:29;4.00;76.00
41437;DHT22;27178;49.460;10.850;2023-01-30T05:14:58;4.10;76.10
41437;DHT22;27178;49.460;10.850;2023-01-30T05:17:28;4.10;76.10
41437;DHT22;27178;49.460;10.850;2023-01-30T05:19:57;4.10;76.20
41437;DHT22;27178;49.460;10.850;2023-01-30T05:22:25;4.10;76.50
41437;DHT22;27178;49.460;10.850;2023-01-30T05:24:53;4.10;76.60
41437;DHT22;27178;49.460;10.850;2023-01-30T05:27:22;4.10;76.80
41437;DHT22;27178;49.460;10.850;2023-01-30T05:29:50;4.10;76.60
41437;DHT22;27178;49.460;10.850;2023-01-30T05:32:19;4.10;76.70
41437;DHT22;27178;49.460;10.850;2023-01-30T05:34:49;4.00;76.80
41437;DHT22;27178;49.460;10.850;2023-01-30T05:37:17;4.10;76.60
41437;DHT22;27178;49.460;10.850;2023-01-30T05:39:46;4.00;76.80
41437;DHT22;27178;49.460;10.850;2023-01-30T05:42:15;5.40;77.80
41437;DHT22;27178;49.460;10.850;2023-01-30T05:44:43;4.10;77.00
41437;DHT22;27178;49.460;10.850;2023-01-30T05:47:11;4.10;77.10
41437;DHT22;27178;49.460;10.850;2023-01-30T05:49:40;4.10;77.30
41437;DHT22;27178;49.460;10.850;2023-01-30T05:52:10;4.00;77.40
41437;DHT22;27178;49.460;10.850;2023-01-30T05:54:38;4.00;77.60
41437;DHT22;27178;49.460;10.850;2023-01-30T05:57:06;4.00;77.50
41437;DHT22;27178;49.460;10.850;2023-01-30T05:59:35;4.10;77.50
41437;DHT22;27178;49.460;10.850;2023-01-30T06:02:03;4.00;77.70
41437;DHT22;27178;49.460;10.850;2023-01-30T06:04:32;4.00;77.60
41437;DHT22;27178;49.460;10.850;2023-01-30T06:07:01;4.00;77.70
41437;DHT22;27178;49.460;10.850;2023-01-30T06:09:31;4.00;77.80
41437;DHT22;27178;49.460;10.850;2023-01-30T06:11:59;4.00;77.80
41437;DHT22;27178;49.460;10.850;2023-01-30T06:14:27;4.10;77.80
41437;DHT22;27178;49.460;10.850;2023-01-30T06:16:55;4.10;77.70
41437;DHT22;27178;49.460;10.850;2023-01-30T06:19:24;4.10;77.60
41437;DHT22;27178;49.460;10.850;2023-01-30T06:21:52;4.10;77.50
41437;DHT22;27178;49.460;10.850;2023-01-30T06:24:21;4.20;77.70
41437;DHT22;27178;49.460;10.850;2023-01-30T06:26:50;4.20;77.70
41437;DHT22;27178;49.460;10.850;2023-01-30T06:29:19;4.20;77.70
41437;DHT22;27178;49.460;10.850;2023-01-30T06:31:47;4.20;77.70
41437;DHT22;27178;49.460;10.850;2023-01-30T06:34:16;4.20;77.50
41437;DHT22;27178;49.460;10.850;2023-01-30T06:36:44;4.20;77.50
41437;DHT22;27178;49.460;10.850;2023-01-30T06:39:13;4.20;77.40
41437;DHT22;27178;49.460;10.850;2023-01-30T06:41:41;4.30;77.50
41437;DHT22;27178;49.460;10.850;2023-01-30T06:44:11;4.30;77.50
41437;DHT22;27178;49.460;10.850;2023-01-30T06:46:39;4.30;77.60
41437;DHT22;27178;49.460;10.850;2023-01-30T06:49:07;4.30;77.50
41437;DHT22;27178;49.460;10.850;2023-01-30T06:51:36;4.30;77.50
41437;DHT22;27178;49.460;10.850;2023-01-30T06:54:04;4.30;77.50
41437;DHT22;27178;49.460;10.850;2023-01-30T06:56:33;4.30;77.50
41437;DHT22;27178;49.460;10.850;2023-01-30T06:59:01;4.30;77.30
41437;DHT22;27178;49.460;10.850;2023-01-30T07:01:31;4.30;77.50
41437;DHT22;27178;49.460;10.850;2023-01-30T07:04:00;4.30;77.30
41437;DHT22;27178;49.460;10.850;2023-01-30T07:06:28;4.30;77.40
41437;DHT22;27178;49.460;10.850;2023-01-30T07:08:56;4.30;77.40
41437;DHT22;27178;49.460;10.850;2023-01-30T07:11:25;4.30;77.40
41437;DHT22;27178;49.460;10.850;2023-01-30T07:13:53;4.40;77.50
41437;DHT22;27178;49.460;10.850;2023-01-30T07:16:22;4.30;77.40
41437;DHT22;27178;49.460;10.850;2023-01-30T07:18:57;4.30;77.40
41437;DHT22;27178;49.460;10.850;2023-01-30T07:21:25;4.40;77.50
41437;DHT22;27178;49.460;10.850;2023-01-30T07:23:54;4.40;77.50
41437;DHT22;27178;49.460;10.850;2023-01-30T07:26:22;4.40;77.40
41437;DHT22;27178;49.460;10.850;2023-01-30T07:28:51;4.40;77.40
41437;DHT22;27178;49.460;10.850;2023-01-30T07:31:19;4.40;77.50
41437;DHT22;27178;49.460;10.850;2023-01-30T07:33:48;4.40;77.40
41437;DHT22;27178;49.460;10.850;2023-01-30T07:36:18;4.40;77.40
41437;DHT22;27178;49.460;10.850;2023-01-30T07:38:47;4.40;77.50
41437;DHT22;27178;49.460;10.850;2023-01-30T07:41:15;4.40;78.30
41437;DHT22;27178;49.460;10.850;2023-01-30T07:43:43;4.40;77.20
41437;DHT22;27178;49.460;10.850;2023-01-30T07:46:12;4.40;77.30
41437;DHT22;27178;49.460;10.850;2023-01-30T07:48:40;4.50;77.30
41437;DHT22;27178;49.460;10.850;2023-01-30T07:51:11;4.50;77.50
41437;DHT22;27178;49.460;10.850;2023-01-30T07:53:41;4.50;77.50
41437;DHT22;27178;49.460;10.850;2023-01-30T07:56:10;4.50;77.50
41437;DHT22;27178;49.460;10.850;2023-01-30T07:58:40;4.50;77.60
41437;DHT22;27178;49.460;10.850;2023-01-30T08:01:08;4.50;77.50
41437;DHT22;27178;49.460;10.850;2023-01-30T08:03:36;4.60;77.50
41437;DHT22;27178;49.460;10.850;2023-01-30T08:06:05;4.60;77.50
41437;DHT22;27178;49.460;10.850;2023-01-30T08:08:33;4.60;77.50
41437;DHT22;27178;49.460;10.850;2023-01-30T08:11:03;4.60;77.50
41437;DHT22;27178;49.460;10.850;2023-01-30T08:13:32;4.60;77.40
41437;DHT22;27178;49.460;10.850;2023-01-30T08:16:00;4.60;77.30
41437;DHT22;27178;49.460;10.850;2023-01-30T08:18:29;4.60;77.30
41437;DHT22;27178;49.460;10.850;2023-01-30T08:20:57;4.70;77.20
41437;DHT22;27178;49.460;10.850;2023-01-30T08:23:26;4.70;77.20
41437;DHT22;27178;49.460;10.850;2023-01-30T08:25:55;4.60;77.20
41437;DHT22;27178;49.460;10.850;2023-01-30T08:28:25;4.70;77.20
41437;DHT22;27178;49.460;10.850;2023-01-30T08:30:54;4.60;77.00
41437;DHT22;27178;49.460;10.850;2023-01-30T08:33:24;4.60;77.10
41437;DHT22;27178;49.460;10.850;2023-01-30T08:35:52;4.70;77.10
41437;DHT22;27178;49.460;10.850;2023-01-30T08:38:23;4.60;77.10
41437;DHT22;27178;49.460;10.850;2023-01-30T08:40:51;4.60;77.10
41437;DHT22;27178;49.460;10.850;2023-01-30T08:43:19;4.70;77.10
41437;DHT22;27178;49.460;10.850;2023-01-30T08:45:52;4.60;77.20
41437;DHT22;27178;49.460;10.850;2023-01-30T08:48:20;4.70;77.10
41437;DHT22;27178;49.460;10.850;2023-01-30T08:50:51;4.70;77.10
41437;DHT22;27178;49.460;10.850;2023-01-30T08:53:20;4.70;77.30
41437;DHT22;27178;49.460;10.850;2023-01-30T08:55:49;4.70;76.70
41437;DHT22;27178;49.460;10.850;2023-01-30T08:58:18;4.70;77.60
41437;DHT22;27178;49.460;10.850;2023-01-30T09:00:47;4.70;77.60
41437;DHT22;27178;49.460;10.850;2023-01-30T09:03:18;4.70;77.60
41437;DHT22;27178;49.460;10.850;2023-01-30T09:05:46;4.70;77.80
41437;DHT22;27178;49.460;10.850;2023-01-30T09:08:14;4.70;78.10
41437;DHT22;27178;49.460;10.850;2023-01-30T09:10:43;4.70;78.10
41437;DHT22;27178;49.460;10.850;2023-01-30T09:13:11;4.70;78.30
41437;DHT22;27178;49.460;10.850;2023-01-30T09:15:41;4.60;78.30
41437;DHT22;27178;49.460;10.850;2023-01-30T09:18:10;4.70;78.50
41437;DHT22;27178;49.460;10.850;2023-01-30T09:20:39;4.70;78.70
41437;DHT22;27178;49.460;10.850;2023-01-30T09:23:08;4.70;78.60
41437;DHT22;27178;49.460;10.850;2023-01-30T09:25:36;4.70;78.40
41437;DHT22;27178;49.460;10.850;2023-01-30T09:28:04;4.70;78.70
41437;DHT22;27178;49.460;10.850;2023-01-30T09:30:34;4.70;78.60
41437;DHT22;27178;49.460;10.850;2023-01-30T09:33:03;4.70;78.70
41437;DHT22;27178;49.460;10.850;2023-01-30T09:35:31;4.70;78.80
41437;DHT22;27178;49.460;10.850;2023-01-30T09:38:01;4.70;78.80
41437;DHT22;27178;49.460;10.850;2023-01-30T09:40:31;4.70;78.90
41437;DHT22;27178;49.460;10.850;2023-01-30T09:43:32;4.70;79.00
41437;DHT22;27178;49.460;10.850;2023-01-30T09:46:13;4.70;79.20
41437;DHT22;27178;49.460;10.850;2023-01-30T09:48:53;4.80;79.10
41437;DHT22;27178;49.460;10.850;2023-01-30T09:51:39;4.80;79.10
41437;DHT22;27178;49.460;10.850;2023-01-30T09:54:29;4.80;79.10
41437;DHT22;27178;49.460;10.850;2023-01-30T09:57:10;4.80;79.30
41437;DHT22;27178;49.460;10.850;2023-01-30T09:59:58;4.80;79.10
41437;DHT22;27178;49.460;10.850;2023-01-30T10:02:38;4.80;79.00
41437;DHT22;27178;49.460;10.850;2023-01-30T10:05:08;4.80;79.10
41437;DHT22;27178;49.460;10.850;2023-01-30T10:07:45;4.90;79.10
41437;DHT22;27178;49.460;10.850;2023-01-30T10:10:25;4.90;79.10
41437;DHT22;27178;49.460;10.850;2023-01-30T10:13:02;4.90;79.10
41437;DHT22;27178;49.460;10.850;2023-01-30T10:15:47;4.90;79.00
41437;DHT22;27178;49.460;10.850;2023-01-30T10:18:34;4.90;79.10
41437;DHT22;27178;49.460;10.850;2023-01-30T10:21:13;5.00;79.30
41437;DHT22;27178;49.460;10.850;2023-01-30T10:23:54;5.00;79.10
41437;DHT22;27178;49.460;10.850;2023-01-30T10:26:28;5.00;79.10
41437;DHT22;27178;49.460;10.850;2023-01-30T10:28:59;5.00;79.10
41437;DHT22;27178;49.460;10.850;2023-01-30T10:31:39;5.10;79.10
41437;DHT22;27178;49.460;10.850;2023-01-30T10:34:13;5.10;79.10
41437;DHT22;27178;49.460;10.850;2023-01-30T10:36:51;5.10;79.10
41437;DHT22;27178;49.460;10.850;2023-01-30T10:39:25;5.10;79.20
41437;DHT22;27178;49.460;10.850;2023-01-30T10:42:03;5.10;79.10
41437;DHT22;27178;49.460;10.850;2023-01-30T10:44:37;5.20;79.10
41437;DHT22;27178;49.460;10.850;2023-01-30T10:47:29;5.20;79.00
41437;DHT22;27178;49.460;10.850;2023-01-30T10:50:16;5.20;79.20
41437;DHT22;27178;49.460;10.850;2023-01-30T10:52:51;5.20;79.10
41437;DHT22;27178;49.460;10.850;2023-01-30T10:55:28;5.20;79.10
41437;DHT22;27178;49.460;10.850;2023-01-30T10:58:14;5.20;79.00
41437;DHT22;27178;49.460;10.850;2023-01-30T11:00:50;5.30;79.20
41437;DHT22;27178;49.460;10.850;2023-01-30T11:03:23;5.30;79.20
41437;DHT22;27178;49.460;10.850;2023-01-30T11:05:53;5.30;79.20
41437;DHT22;27178;49.460;10.850;2023-01-30T11:08:26;5.30;79.20
41437;DHT22;27178;49.460;10.850;2023-01-30T11:10:56;5.30;79.10
41437;DHT22;27178;49.460;10.850;2023-01-30T11:13:29;5.30;79.30
41437;DHT22;27178;49.460;10.850;2023-01-30T11:16:03;5.30;79.40
41437;DHT22;27178;49.460;10.850;2023-01-30T11:18:32;5.30;79.20
41437;DHT22;27178;49.460;10.850;2023-01-30T11:21:24;5.30;79.30
41437;DHT22;27178;49.460;10.850;2023-01-30T11:24:12;5.30;79.20
41437;DHT22;27178;49.460;10.850;2023-01-30T11:26:44;5.40;79.30
41437;DHT22;27178;49.460;10.850;2023-01-30T11:29:27;5.40;79.30
41437;DHT22;27178;49.460;10.850;2023-01-30T11:32:00;5.40;79.30
41437;DHT22;27178;49.460;10.850;2023-01-30T11:34:29;5.40;79.30
41437;DHT22;27178;49.460;10.850;2023-01-30T11:37:12;5.40;79.10
41437;DHT22;27178;49.460;10.850;2023-01-30T11:39:47;5.40;79.30
41437;DHT22;27178;49.460;10.850;2023-01-30T11:42:19;5.40;79.20
41437;DHT22;27178;49.460;10.850;2023-01-30T11:44:58;5.50;79.30
41437;DHT22;27178;49.460;10.850;2023-01-30T11:47:49;5.50;79.30
41437;DHT22;27178;49.460;10.850;2023-01-30T11:50:32;5.50;79.30
41437;DHT22;27178;49.460;10.850;2023-01-30T11:53:25;5.50;79.10
41437;DHT22;27178;49.460;10.850;2023-01-30T11:55:58;5.50;80.20
41437;DHT22;27178;49.460;10.850;2023-01-30T11:58:34;5.50;79.20
41437;DHT22;27178;49.460;10.850;2023-01-30T12:01:07;5.50;79.30
41437;DHT22;27178;49.460;10.850;2023-01-30T12:03:43;5.50;79.40
41437;DHT22;27178;49.460;10.850;2023-01-30T12:06:20;5.50;79.40
41437;DHT22;27178;49.460;10.850;2023-01-30T12:08:52;5.50;79.40
41437;DHT22;27178;49.460;10.850;2023-01-30T12:11:30;5.50;79.30
41437;DHT22;27178;49.460;10.850;2023-01-30T12:14:15;5.50;79.30
41437;DHT22;27178;49.460;10.850;2023-01-30T12:16:59;5.60;79.60
41437;DHT22;27178;49.460;10.850;2023-01-30T12:19:35;5.50;79.50
41437;DHT22;27178;49.460;10.850;2023-01-30T12:22:16;5.60;79.50
41437;DHT22;27178;49.460;10.850;2023-01-30T12:24:54;5.60;79.50
41437;DHT22;27178;49.460;10.850;2023-01-30T12:27:42;5.60;79.60
41437;DHT22;27178;49.460;10.850;2023-01-30T12:30:22;5.70;79.70
41437;DHT22;27178;49.460;10.850;2023-01-30T12:32:57;5.60;80.60
41437;DHT22;27178;49.460;10.850;2023-01-30T12:35:38;5.60;79.70
41437;DHT22;27178;49.460;10.850;2023-01-30T12:38:17;5.60;79.60
41437;DHT22;27178;49.460;10.850;2023-01-30T12:40:57;5.70;79.60
41437;DHT22;27178;49.460;10.850;2023-01-30T12:43:45;5.70;79.50
41437;DHT22;27178;49.460;10.850;2023-01-30T12:46:42;5.70;79.50
41437;DHT22;27178;49.460;10.850;2023-01-30T12:52:32;5.80;79.50
41437;DHT22;27178;49.460;10.850;2023-01-30T12:55:17;5.80;79.50
41437;DHT22;27178;49.460;10.850;2023-01-30T12:57:52;5.70;79.40
41437;DHT22;27178;49.460;10.850;2023-01-30T13:00:36;5.80;79.50
41437;DHT22;27178;49.460;10.850;2023-01-30T13:03:21;5.80;79.70
41437;DHT22;27178;49.460;10.850;2023-01-30T13:05:56;5.80;79.70
41437;DHT22;27178;49.460;10.850;2023-01-30T13:08:40;5.80;79.80
41437;DHT22;27178;49.460;10.850;2023-01-30T13:11:25;5.90;80.00
41437;DHT22;27178;49.460;10.850;2023-01-30T13:14:01;5.90;80.30
41437;DHT22;27178;49.460;10.850;2023-01-30T13:16:36;6.00;80.10
41437;DHT22;27178;49.460;10.850;2023-01-30T13:19:13;6.00;79.90
41437;DHT22;27178;49.460;10.850;2023-01-30T13:21:54;6.10;79.80
41437;DHT22;27178;49.460;10.850;2023-01-30T13:24:33;6.20;79.70
41437;DHT22;27178;49.460;10.850;2023-01-30T13:27:11;6.20;79.70
41437;DHT22;27178;49.460;10.850;2023-01-30T13:29:42;6.20;79.60
41437;DHT22;27178;49.460;10.850;2023-01-30T13:32:13;6.20;79.50
41437;DHT22;27178;49.460;10.850;2023-01-30T13:34:44;6.20;79.30
41437;DHT22;27178;49.460;10.850;2023-01-30T13:37:16;6.30;79.30
41437;DHT22;27178;49.460;10.850;2023-01-30T13:39:47;6.30;79.20
41437;DHT22;27178;49.460;10.850;2023-01-30T13:42:25;6.30;79.10
41437;DHT22;27178;49.460;10.850;2023-01-30T13:44:55;6.30;79.20
41437;DHT22;27178;49.460;10.850;2023-01-30T13:47:41;6.30;79.10
41437;DHT22;27178;49.460;10.850;2023-01-30T13:50:35;6.30;79.20
41437;DHT22;27178;49.460;10.850;2023-01-30T13:53:13;6.30;79.10
41437;DHT22;27178;49.460;10.850;2023-01-30T13:55:48;6.30;79.00
41437;DHT22;27178;49.460;10.850;2023-01-30T13:58:33;6.30;78.90
41437;DHT22;27178;49.460;10.850;2023-01-30T14:01:10;6.30;79.00
41437;DHT22;27178;49.460;10.850;2023-01-30T14:03:39;6.30;78.90
41437;DHT22;27178;49.460;10.850;2023-01-30T14:06:31;6.30;78.90
41437;DHT22;27178;49.460;10.850;2023-01-30T14:09:16;6.30;79.00
41437;DHT22;27178;49.460;10.850;2023-01-30T14:11:56;6.30;78.90
41437;DHT22;27178;49.460;10.850;2023-01-30T14:14:29;6.30;79.00
41437;DHT22;27178;49.460;10.850;2023-01-30T14:17:11;6.30;78.90
41437;DHT22;27178;49.460;10.850;2023-01-30T14:19:42;6.30;78.90
41437;DHT22;27178;49.460;10.850;2023-01-30T14:22:26;6.30;78.80
41437;DHT22;27178;49.460;10.850;2023-01-30T14:25:35;6.30;78.90
41437;DHT22;27178;49.460;10.850;2023-01-30T14:31:45;6.20;78.90
41437;DHT22;27178;49.460;10.850;2023-01-30T14:34:48;6.20;78.90
41437;DHT22;27178;49.460;10.850;2023-01-30T14:40:38;6.20;79.00
41437;DHT22;27178;49.460;10.850;2023-01-30T14:43:35;6.20;79.00
41437;DHT22;27178;49.460;10.850;2023-01-30T14:46:06;6.20;79.10
41437;DHT22;27178;49.460;10.850;2023-01-30T14:48:41;6.20;79.10
41437;DHT22;27178;49.460;10.850;2023-01-30T14:51:18;6.20;79.30
41437;DHT22;27178;49.460;10.850;2023-01-30T14:53:55;6.20;79.40
41437;DHT22;27178;49.460;10.850;2023-01-30T14:56:42;6.20;79.40
41437;DHT22;27178;49.460;10.850;2023-01-30T14:59:23;6.20;79.30
41437;DHT22;27178;49.460;10.850;2023-01-30T15:02:05;6.30;79.30
41437;DHT22;27178;49.460;10.850;2023-01-30T15:04:40;6.30;79.10
41437;DHT22;27178;49.460;10.850;2023-01-30T15:07:13;6.30;79.00
41437;DHT22;27178;49.460;10.850;2023-01-30T15:09:50;6.30;78.90
41437;DHT22;27178;49.460;10.850;2023-01-30T15:15:48;6.30;78.80
41437;DHT22;27178;49.460;10.850;2023-01-30T15:18:29;6.30;78.70
41437;DHT22;27178;49.460;10.850;2023-01-30T15:21:25;6.20;78.60
41437;DHT22;27178;49.460;10.850;2023-01-30T15:24:06;6.30;78.70
41437;DHT22;27178;49.460;10.850;2023-01-30T15:26:48;6.20;78.60
41437;DHT22;27178;49.460;10.850;2023-01-30T15:32:22;6.20;78.60
41437;DHT22;27178;49.460;10.850;2023-01-30T15:34:52;6.30;78.70
41437;DHT22;27178;49.460;10.850;2023-01-30T15:37:33;6.20;78.60
41437;DHT22;27178;49.460;10.850;2023-01-30T15:40:26;6.30;78.90
41437;DHT22;27178;49.460;10.850;2023-01-30T15:43:10;6.30;78.90
41437;DHT22;27178;49.460;10.850;2023-01-30T15:45:49;6.20;78.90
41437;DHT22;27178;49.460;10.850;2023-01-30T15:48:34;6.30;78.90
41437;DHT22;27178;49.460;10.850;2023-01-30T15:51:10;6.30;78.90
41437;DHT22;27178;49.460;10.850;2023-01-30T15:53:42;6.30;78.90
41437;DHT22;27178;49.460;10.850;2023-01-30T15:56:16;6.30;78.90
41437;DHT22;27178;49.460;10.850;2023-01-30T15:58:46;6.30;79.00
41437;DHT22;27178;49.460;10.850;2023-01-30T16:01:18;6.20;78.90
41437;DHT22;27178;49.460;10.850;2023-01-30T16:03:49;6.30;79.00
41437;DHT22;27178;49.460;10.850;2023-01-30T16:06:27;6.30;78.90
41437;DHT22;27178;49.460;10.850;2023-01-30T16:08:58;6.30;79.10
41437;DHT22;27178;49.460;10.850;2023-01-30T16:11:38;6.30;79.00
41437;DHT22;27178;49.460;10.850;2023-01-30T16:14:11;6.30;79.10
41437;DHT22;27178;49.460;10.850;2023-01-30T16:16:43;6.30;79.00
41437;DHT22;27178;49.460;10.850;2023-01-30T16:19:20;6.30;79.10
41437;DHT22;27178;49.460;10.850;2023-01-30T16:21:55;6.30;79.10
41437;DHT22;27178;49.460;10.850;2023-01-30T16:24:26;6.30;79.10
41437;DHT22;27178;49.460;10.850;2023-01-30T16:26:57;6.30;79.00
41437;DHT22;27178;49.460;10.850;2023-01-30T16:29:47;6.30;79.10
41437;DHT22;27178;49.460;10.850;2023-01-30T16:32:23;6.30;79.00